Time;durP1;ratioP1;P1;durP2;ratioP2;P2;SDS_P1;SDS_P2;PMS_P1;PMS_P2;Temp;Humidity;BMP_temperature;BMP_pressure;BME280_temperature;BME280_humidity;BME280_pressure;Samples;Min_cycle;Max_cycle;Signal;HPM_P1;HPM_P2
2022/06/03 09:40:30;;;;;;;1.40;1.40;;;20.50;99.90;;;;;;5090887;28;20532;-71
2022/06/03 09:43:08;;;;;;;1.60;1.60;;;19.50;99.90;;;;;;5090953;28;20197;-71
2022/06/03 09:45:35;;;;;;;2.03;1.70;;;19.50;99.90;;;;;;5090913;28;20160;-71
2022/06/03 09:48:04;;;;;;;1.50;1.42;;;19.50;99.90;;;;;;5090771;28;20571;-72
2022/06/03 09:50:31;;;;;;;2.05;1.75;;;19.50;99.90;;;;;;5090749;28;20167;-71
2022/06/03 09:53:09;;;;;;;1.67;1.58;;;19.50;99.90;;;;;;5090726;28;20169;-71
2022/06/03 09:55:40;;;;;;;1.40;1.40;;;19.50;99.90;;;;;;5090718;28;20171;-71
2022/06/03 09:58:15;;;;;;;2.47;2.35;;;19.60;99.90;;;;;;5090575;28;20175;-72
2022/06/03 10:00:46;;;;;;;2.17;1.80;;;19.60;99.90;;;;;;5090761;28;20170;-71
2022/06/03 10:03:12;;;;;;;3.10;1.80;;;19.60;99.90;;;;;;5090526;28;20164;-71
2022/06/03 10:05:39;;;;;;;1.92;1.83;;;19.60;99.90;;;;;;5072278;28;20201;-71
2022/06/03 10:08:08;;;;;;;1.90;1.80;;;19.80;99.90;;;;;;5089171;28;20167;-71
2022/06/03 10:13:18;;;;;;;1.85;1.60;;;20.20;99.90;;;;;;5090583;28;20182;-71
2022/06/03 10:15:48;;;;;;;1.75;1.63;;;20.40;99.90;;;;;;5090226;28;20247;-71
2022/06/03 10:18:22;;;;;;;1.80;1.70;;;20.50;99.90;;;;;;5090162;28;20202;-71
2022/06/03 10:20:51;;;;;;;1.85;1.75;;;20.50;99.90;;;;;;5088912;28;20158;-71
2022/06/03 10:23:24;;;;;;;2.97;1.80;;;20.60;99.90;;;;;;5090066;28;20195;-71
2022/06/03 10:25:51;;;;;;;3.28;1.67;;;20.60;99.90;;;;;;5090146;28;20622;-71
2022/06/03 10:28:18;;;;;;;3.10;2.10;;;20.70;99.90;;;;;;5088770;28;20181;-71
2022/06/03 10:30:45;;;;;;;2.65;1.75;;;20.70;99.90;;;;;;5089944;28;20252;-72
2022/06/03 10:33:20;;;;;;;1.73;1.63;;;20.80;99.90;;;;;;5088957;28;20179;-71
2022/06/03 10:35:47;;;;;;;1.98;1.60;;;21.00;99.90;;;;;;5089890;28;20195;-71
2022/06/03 10:38:19;;;;;;;1.80;1.70;;;21.10;99.90;;;;;;5089684;28;20179;-72
2022/06/03 10:40:50;;;;;;;2.25;1.77;;;21.30;99.90;;;;;;5089983;28;20585;-71
2022/06/03 10:43:31;;;;;;;2.08;1.70;;;21.50;99.90;;;;;;5089755;28;20167;-72
2022/06/03 10:46:08;;;;;;;2.00;1.77;;;21.70;99.90;;;;;;5089777;28;20858;-71
2022/06/03 10:48:35;;;;;;;2.28;1.75;;;21.90;99.90;;;;;;5089662;28;20171;-71
2022/06/03 11:01:06;;;;;;;1.77;1.67;;;22.00;99.90;;;;;;5080213;28;20210;-71
2022/06/03 11:02:33;;;;;;;2.20;1.83;;;22.30;99.90;;;;;;5076137;28;20531;-71
2022/06/03 11:05:25;;;;;;;2.65;2.55;;;22.20;99.90;;;;;;5075812;28;20171;-71
2022/06/03 11:08:05;;;;;;;1.65;1.60;;;22.30;99.90;;;;;;5075882;28;20567;-71
2022/06/03 11:10:41;;;;;;;1.70;1.60;;;22.40;99.90;;;;;;5075701;28;20641;-71
2022/06/03 11:13:09;;;;;;;1.90;1.80;;;22.30;99.90;;;;;;5075731;28;20628;-72
2022/06/03 11:15:41;;;;;;;2.05;1.80;;;22.30;99.90;;;;;;5075566;28;20191;-72
2022/06/03 11:18:27;;;;;;;2.05;1.95;;;22.30;99.90;;;;;;5075668;28;20218;-71
2022/06/03 11:20:54;;;;;;;1.98;1.50;;;22.30;99.90;;;;;;5075415;28;20191;-71
2022/06/03 11:23:23;;;;;;;1.50;1.50;;;22.40;99.90;;;;;;5075454;28;20184;-71
2022/06/03 11:25:51;;;;;;;1.85;1.70;;;22.50;99.90;;;;;;5075557;28;20636;-71
2022/06/03 11:28:22;;;;;;;3.05;1.77;;;22.50;99.90;;;;;;5075466;28;20225;-71
2022/06/03 11:31:09;;;;;;;4.35;1.90;;;22.70;99.90;;;;;;5075336;28;20168;-71
2022/06/03 11:33:58;;;;;;;4.00;1.80;;;22.80;99.90;;;;;;5075411;28;20175;-71
2022/06/03 11:37:01;;;;;;;2.38;1.50;;;22.80;99.90;;;;;;5074776;28;20184;-71
2022/06/03 11:39:49;;;;;;;3.08;1.80;;;23.00;99.90;;;;;;5074935;28;20230;-71
2022/06/03 11:42:42;;;;;;;2.10;1.90;;;23.20;99.90;;;;;;5075238;28;20214;-71
2022/06/03 11:45:10;;;;;;;4.28;1.88;;;23.40;99.90;;;;;;5075208;28;20163;-71
2022/06/03 11:47:53;;;;;;;2.83;1.90;;;23.70;99.90;;;;;;5075098;28;20164;-71
2022/06/03 11:50:22;;;;;;;2.53;1.60;;;23.80;99.90;;;;;;5073912;28;20625;-71
2022/06/03 11:52:50;;;;;;;1.90;1.80;;;23.80;99.90;;;;;;5074943;28;20648;-71
2022/06/03 11:55:18;;;;;;;2.15;1.98;;;23.60;99.90;;;;;;5074877;28;20196;-71
2022/06/03 11:57:57;;;;;;;2.00;1.90;;;23.40;99.90;;;;;;5074758;28;20180;-71
2022/06/03 12:00:26;;;;;;;2.33;2.13;;;23.20;99.90;;;;;;5074743;28;20172;-71
2022/06/03 12:03:23;;;;;;;1.70;1.60;;;23.00;99.90;;;;;;5073826;28;20213;-72
2022/06/03 12:06:14;;;;;;;5.70;1.90;;;22.90;99.90;;;;;;5074683;28;20221;-71
2022/06/03 12:08:53;;;;;;;2.42;1.98;;;22.90;99.90;;;;;;5074319;28;20180;-71
2022/06/03 12:14:37;;;;;;;1.95;1.85;;;23.00;99.90;;;;;;5074547;28;20194;-71
2022/06/03 12:17:08;;;;;;;2.30;2.13;;;23.20;99.90;;;;;;5073083;28;20182;-71
2022/06/03 12:19:40;;;;;;;1.92;1.83;;;23.50;99.90;;;;;;5074326;28;20199;-71
2022/06/03 12:22:29;;;;;;;2.03;1.88;;;23.60;99.90;;;;;;5073058;28;20511;-72
2022/06/03 12:24:56;;;;;;;5.13;2.20;;;23.70;99.90;;;;;;5069437;28;20199;-72
2022/06/03 12:27:29;;;;;;;4.05;2.28;;;23.80;99.90;;;;;;5074193;28;20621;-71
2022/06/03 12:30:14;;;;;;;4.78;1.80;;;23.90;99.90;;;;;;5074269;28;20172;-72
2022/06/03 12:32:57;;;;;;;4.07;2.00;;;24.00;99.90;;;;;;5074220;28;20225;-71
2022/06/03 12:35:41;;;;;;;2.22;2.05;;;24.20;99.90;;;;;;5074220;28;20174;-72
2022/06/03 12:38:19;;;;;;;2.08;1.90;;;24.30;99.90;;;;;;5073911;28;20251;-71
2022/06/03 12:40:47;;;;;;;2.10;2.00;;;24.30;99.90;;;;;;5074030;28;20186;-71
2022/06/03 12:43:29;;;;;;;3.03;1.95;;;24.40;99.90;;;;;;5074133;28;20253;-72
2022/06/03 12:46:36;;;;;;;6.47;1.83;;;24.50;99.90;;;;;;5073983;28;20246;-72
2022/06/03 12:49:04;;;;;;;1.90;1.80;;;24.70;99.90;;;;;;5073836;28;20547;-71
2022/06/03 12:51:33;;;;;;;1.80;1.70;;;24.80;99.90;;;;;;5072556;28;20195;-71
2022/06/03 12:54:26;;;;;;;2.55;1.83;;;24.90;99.90;;;;;;5073878;28;20176;-71
2022/06/03 12:56:56;;;;;;;3.33;1.98;;;25.00;99.90;;;;;;5051346;28;20731;-72
2022/06/03 12:59:59;;;;;;;3.80;2.00;;;25.00;99.90;;;;;;5051484;28;20219;-71
2022/06/03 13:02:29;;;;;;;1.80;1.80;;;24.90;99.90;;;;;;5034986;28;20176;-71
2022/06/03 13:04:54;;;;;;;7.63;1.70;;;24.80;99.90;;;;;;5051542;28;20191;-72
2022/06/03 13:07:26;;;;;;;2.35;1.70;;;24.70;99.90;;;;;;5051463;28;20600;-71
2022/06/03 13:10:03;;;;;;;2.03;1.80;;;24.60;99.90;;;;;;5051397;28;20261;-71
2022/06/03 13:12:31;;;;;;;2.60;1.58;;;24.40;99.90;;;;;;5051333;28;20188;-72
2022/06/03 13:15:20;;;;;;;1.90;1.80;;;24.10;99.90;;;;;;5051111;28;20743;-71
2022/06/03 13:17:59;;;;;;;1.60;1.60;;;24.10;99.90;;;;;;5051104;28;20520;-71
2022/06/03 13:20:42;;;;;;;2.15;1.52;;;24.20;99.90;;;;;;5051227;28;20203;-72
2022/06/03 13:23:19;;;;;;;1.45;1.45;;;24.50;99.90;;;;;;5051213;28;20196;-72
2022/06/03 13:25:47;;;;;;;5.18;1.92;;;24.40;99.90;;;;;;5051180;28;20170;-71
2022/06/03 13:28:24;;;;;;;4.25;1.35;;;24.30;99.90;;;;;;5065662;28;20211;-71
2022/06/03 13:31:26;;;;;;;2.47;1.30;;;24.30;99.90;;;;;;5073374;28;20164;-72
2022/06/03 13:34:02;;;;;;;1.60;1.55;;;24.10;99.90;;;;;;5072085;28;20236;-71
2022/06/03 13:36:37;;;;;;;2.13;1.60;;;23.90;99.90;;;;;;5073294;28;20182;-71
2022/06/03 13:39:04;;;;;;;6.55;1.63;;;23.80;99.90;;;;;;5073004;28;20585;-71
2022/06/03 13:44:47;;;;;;;1.48;1.45;;;23.90;99.90;;;;;;5073231;28;20206;-71
2022/06/03 13:47:47;;;;;;;2.15;1.50;;;24.10;99.90;;;;;;5073239;28;20163;-71
2022/06/03 13:50:13;;;;;;;1.25;1.25;;;24.40;99.90;;;;;;5071905;28;20172;-71
2022/06/03 13:52:59;;;;;;;1.95;1.60;;;24.80;99.90;;;;;;5073159;28;20641;-72
2022/06/03 13:55:32;;;;;;;11.73;2.90;;;25.10;99.90;;;;;;5073066;28;20183;-71
2022/06/03 13:58:16;;;;;;;2.00;1.40;;;25.40;99.90;;;;;;5073095;28;20171;-71
2022/06/03 14:00:51;;;;;;;3.00;1.40;;;25.60;99.90;;;;;;5073445;28;20255;-71
2022/06/03 14:03:29;;;;;;;1.20;1.20;;;25.80;99.90;;;;;;5073272;28;20221;-71
2022/06/03 14:06:05;;;;;;;3.45;1.20;;;26.00;99.90;;;;;;5055527;28;20178;-72
2022/06/03 14:08:37;;;;;;;3.28;1.50;;;26.00;99.90;;;;;;5073125;28;20167;-72
2022/06/03 14:11:06;;;;;;;2.00;1.63;;;26.20;99.90;;;;;;5073156;28;20222;-72
2022/06/03 14:13:52;;;;;;;1.77;1.67;;;26.30;99.90;;;;;;5073188;28;20247;-72
2022/06/03 14:16:40;;;;;;;1.85;1.40;;;26.50;99.90;;;;;;5073156;28;20164;-72
2022/06/03 14:19:09;;;;;;;2.85;1.20;;;26.40;99.90;;;;;;5073460;28;20195;-72
2022/06/03 14:21:37;;;;;;;3.90;1.33;;;26.50;99.90;;;;;;5073292;28;20208;-72
2022/06/03 14:24:24;;;;;;;1.73;1.35;;;26.70;99.90;;;;;;5072940;28;20266;-72
2022/06/03 14:26:59;;;;;;;1.40;1.30;;;27.00;99.90;;;;;;5076165;28;20163;-72
2022/06/03 14:29:31;;;;;;;5.18;1.50;;;27.30;99.90;;;;;;5076500;28;20211;-72
2022/06/03 14:32:10;;;;;;;1.33;1.33;;;27.50;99.90;;;;;;5076779;28;20172;-72
2022/06/03 14:34:59;;;;;;;1.15;1.15;;;27.60;99.90;;;;;;5076325;28;20180;-72
2022/06/03 14:37:39;;;;;;;2.28;1.42;;;27.30;99.90;;;;;;5076328;28;20187;-71
2022/06/03 14:40:08;;;;;;;2.13;2.03;;;27.20;99.90;;;;;;5075198;28;20231;-72
2022/06/03 14:42:38;;;;;;;1.52;1.42;;;27.10;99.90;;;;;;5074986;28;20215;-71
2022/06/03 14:45:07;;;;;;;3.40;3.20;;;27.00;99.90;;;;;;5076203;28;20168;-72
2022/06/03 14:48:02;;;;;;;2.70;1.70;;;27.00;99.90;;;;;;5076191;28;20174;-72
2022/06/03 14:50:34;;;;;;;1.60;1.50;;;27.10;99.90;;;;;;5074854;28;20168;-72
2022/06/03 14:53:11;;;;;;;3.53;1.70;;;27.20;99.90;;;;;;5076186;28;20168;-71
2022/06/03 14:55:41;;;;;;;1.50;1.40;;;27.40;99.90;;;;;;5076468;28;20618;-72
2022/06/03 14:58:31;;;;;;;1.83;1.73;;;27.70;99.90;;;;;;5076258;28;20171;-72
2022/06/03 15:00:56;;;;;;;2.85;1.90;;;27.80;99.90;;;;;;5076327;28;20163;-72
2022/06/03 15:03:26;;;;;;;4.00;1.33;;;27.80;99.90;;;;;;5076209;28;20659;-72
2022/06/03 15:05:55;;;;;;;2.97;1.40;;;27.60;99.90;;;;;;5076246;28;20168;-72
2022/06/03 15:08:41;;;;;;;1.70;1.60;;;27.30;99.90;;;;;;5076298;28;20544;-72
2022/06/03 15:11:25;;;;;;;2.95;1.40;;;27.10;99.90;;;;;;5076017;28;20175;-72
2022/06/03 15:13:52;;;;;;;1.52;1.52;;;27.00;99.90;;;;;;5075945;28;20176;-72
2022/06/03 15:16:18;;;;;;;2.55;1.38;;;27.20;99.90;;;;;;5074448;28;20222;-72
2022/06/03 15:18:47;;;;;;;1.55;1.55;;;27.50;99.90;;;;;;5074317;28;20230;-72
2022/06/03 15:21:32;;;;;;;1.45;1.40;;;27.80;99.90;;;;;;5075639;28;20229;-72
2022/06/03 15:24:04;;;;;;;1.65;1.55;;;28.00;99.90;;;;;;5075611;28;20159;-72
2022/06/03 15:26:42;;;;;;;1.88;1.48;;;27.50;99.90;;;;;;5075494;28;20170;-72
2022/06/03 15:29:16;;;;;;;1.70;1.60;;;27.10;99.90;;;;;;5075317;28;20202;-71
2022/06/03 15:31:46;;;;;;;1.42;1.33;;;26.80;99.90;;;;;;5075435;28;20176;-72
2022/06/03 15:34:12;;;;;;;1.35;1.25;;;26.70;99.90;;;;;;5075372;28;20295;-72
2022/06/03 15:36:44;;;;;;;2.10;1.40;;;26.70;99.90;;;;;;5075289;28;20172;-71
2022/06/03 15:39:22;;;;;;;1.67;1.50;;;26.70;99.90;;;;;;5074909;28;20268;-72
2022/06/03 15:41:50;;;;;;;1.40;1.40;;;26.40;99.90;;;;;;5075180;28;20163;-72
2022/06/03 15:44:38;;;;;;;3.80;1.60;;;26.20;99.90;;;;;;5075302;28;20168;-72
2022/06/03 15:47:16;;;;;;;4.38;2.13;;;25.80;99.90;;;;;;5075068;28;20160;-72
2022/06/03 15:50:02;;;;;;;2.13;1.92;;;25.40;99.90;;;;;;5075012;28;20163;-72
2022/06/03 15:52:38;;;;;;;4.32;2.55;;;25.00;99.90;;;;;;5074998;28;20648;-72
2022/06/03 15:55:04;;;;;;;9.55;2.95;;;24.60;99.90;;;;;;5074797;28;20258;-72
2022/06/03 15:57:39;;;;;;;2.13;1.75;;;24.40;99.90;;;;;;5074791;28;20246;-72
2022/06/03 16:00:20;;;;;;;2.33;2.22;;;24.20;99.90;;;;;;5074720;28;20210;-72
2022/06/03 16:03:01;;;;;;;2.45;1.90;;;24.10;99.90;;;;;;5074894;28;20170;-72
2022/06/03 16:05:29;;;;;;;1.60;1.50;;;23.90;99.90;;;;;;5075621;28;20163;-73
2022/06/03 16:08:06;;;;;;;2.50;1.60;;;23.80;99.90;;;;;;5074909;28;20187;-73
2022/06/03 16:10:38;;;;;;;1.50;1.50;;;23.80;99.90;;;;;;5074955;28;20229;-72
2022/06/03 16:13:23;;;;;;;5.20;1.38;;;23.70;99.90;;;;;;5074831;28;20172;-72
2022/06/03 16:16:01;;;;;;;1.60;1.50;;;23.70;99.90;;;;;;5074617;28;20183;-72
2022/06/03 16:18:52;;;;;;;2.35;1.70;;;23.80;99.90;;;;;;5073491;28;20176;-72
2022/06/03 16:21:51;;;;;;;1.85;1.65;;;23.80;99.90;;;;;;5074436;28;20235;-71
2022/06/03 16:24:38;;;;;;;2.08;1.88;;;23.80;99.90;;;;;;5074488;28;20160;-72
2022/06/03 16:27:24;;;;;;;1.58;1.42;;;23.80;99.90;;;;;;5074278;28;20164;-71
2022/06/03 16:30:05;;;;;;;3.95;1.58;;;23.70;99.90;;;;;;5074200;28;20574;-72
2022/06/03 16:32:59;;;;;;;3.95;1.52;;;23.60;99.90;;;;;;5074610;28;20172;-72
2022/06/03 16:35:36;;;;;;;1.63;1.52;;;23.40;99.90;;;;;;5074217;28;20175;-72
2022/06/03 16:38:06;;;;;;;1.65;1.55;;;23.30;99.90;;;;;;5074222;28;20650;-72
2022/06/03 16:40:56;;;;;;;5.45;1.88;;;23.20;99.90;;;;;;5074364;28;20212;-72
2022/06/03 16:43:54;;;;;;;2.88;1.50;;;23.10;99.90;;;;;;5073853;28;20213;-72
2022/06/03 16:46:39;;;;;;;1.85;1.40;;;23.00;99.90;;;;;;5074113;28;20198;-72
2022/06/03 16:49:13;;;;;;;2.47;1.63;;;22.90;99.90;;;;;;5072390;28;20782;-72
2022/06/03 16:51:54;;;;;;;1.88;1.70;;;22.80;99.90;;;;;;5073610;28;20568;-72
2022/06/03 16:54:29;;;;;;;1.80;1.65;;;22.80;99.90;;;;;;5073466;28;20301;-72
2022/06/03 16:57:10;;;;;;;3.03;2.25;;;22.80;99.90;;;;;;5073732;28;20175;-72
2022/06/03 16:59:39;;;;;;;1.80;1.70;;;22.70;99.90;;;;;;5073507;28;20340;-72
2022/06/03 17:02:17;;;;;;;1.90;1.75;;;22.70;99.90;;;;;;5073712;28;20195;-72
2022/06/03 17:04:44;;;;;;;2.08;1.98;;;22.60;99.90;;;;;;5073789;28;20178;-72
2022/06/03 17:07:10;;;;;;;3.88;1.77;;;22.60;99.90;;;;;;5073675;28;20171;-72
2022/06/03 17:09:41;;;;;;;3.47;1.90;;;22.60;99.90;;;;;;5073404;28;20633;-72
2022/06/03 17:12:13;;;;;;;3.72;2.03;;;22.50;99.90;;;;;;5073608;28;20168;-72
2022/06/03 17:14:43;;;;;;;1.60;1.60;;;22.50;99.90;;;;;;5073503;28;20529;-72
2022/06/03 17:17:29;;;;;;;1.55;1.55;;;22.50;99.90;;;;;;5073486;28;20179;-72
2022/06/03 17:20:09;;;;;;;3.30;2.30;;;22.50;99.90;;;;;;5073445;28;20320;-72
2022/06/03 17:22:55;;;;;;;2.20;2.00;;;22.50;99.90;;;;;;5073314;28;20224;-72
2022/06/03 17:25:40;;;;;;;1.92;1.88;;;22.40;99.90;;;;;;5073446;28;20164;-72
2022/06/03 17:28:30;;;;;;;1.90;1.80;;;22.40;99.90;;;;;;5073583;28;20513;-72
2022/06/03 17:31:08;;;;;;;5.15;2.03;;;22.40;99.90;;;;;;5073406;28;20220;-72
2022/06/03 17:33:43;;;;;;;1.65;1.50;;;22.50;99.90;;;;;;5073344;28;20191;-72
2022/06/03 17:36:14;;;;;;;1.75;1.63;;;22.60;99.90;;;;;;5072570;28;20183;-72
2022/06/03 17:39:03;;;;;;;1.40;1.40;;;22.60;99.90;;;;;;5073183;28;20220;-72
2022/06/03 17:41:45;;;;;;;2.55;1.73;;;22.60;99.90;;;;;;5072163;28;20655;-73
2022/06/03 17:44:25;;;;;;;2.55;2.05;;;22.70;99.90;;;;;;5071909;28;20573;-72
2022/06/03 17:47:06;;;;;;;1.90;1.80;;;22.70;99.90;;;;;;5072831;28;20637;-72
2022/06/03 17:49:45;;;;;;;1.85;1.80;;;22.80;99.90;;;;;;5073166;28;20533;-73
2022/06/03 17:55:20;;;;;;;1.90;1.80;;;22.90;99.90;;;;;;5073035;28;20281;-72
2022/06/03 17:58:13;;;;;;;2.30;1.55;;;23.10;99.90;;;;;;5071663;28;20207;-72
2022/06/03 18:00:45;;;;;;;2.90;1.95;;;23.30;99.90;;;;;;5074223;28;20198;-72
2022/06/03 18:03:32;;;;;;;1.83;1.73;;;23.50;99.90;;;;;;5077187;28;20589;-72
2022/06/03 18:06:25;;;;;;;2.90;2.00;;;23.80;99.90;;;;;;5077021;28;20168;-72
2022/06/03 18:08:56;;;;;;;1.65;1.60;;;24.30;99.90;;;;;;5075746;28;20682;-72
2022/06/03 18:11:32;;;;;;;3.47;1.83;;;24.40;99.90;;;;;;5076985;28;20222;-73
2022/06/03 18:14:25;;;;;;;2.40;1.63;;;24.10;99.90;;;;;;5076964;28;20164;-72
2022/06/03 18:17:02;;;;;;;2.75;2.10;;;23.70;99.90;;;;;;5076888;28;20652;-72
2022/06/03 18:19:36;;;;;;;2.10;1.80;;;23.40;99.90;;;;;;5076635;28;20192;-72
2022/06/03 18:22:41;;;;;;;1.80;1.70;;;23.50;99.90;;;;;;5076809;28;20532;-72
2022/06/03 18:25:44;;;;;;;2.00;1.90;;;23.70;99.90;;;;;;5075441;28;20164;-72
2022/06/03 18:28:42;;;;;;;5.60;1.83;;;24.00;99.90;;;;;;5075262;28;20168;-72
2022/06/03 18:31:58;;;;;;;2.75;1.90;;;24.20;99.90;;;;;;5076553;28;20174;-72
2022/06/03 18:34:30;;;;;;;3.47;1.50;;;24.40;99.90;;;;;;5075430;28;20644;-72
2022/06/03 18:37:31;;;;;;;5.45;2.70;;;24.60;99.90;;;;;;5076735;28;20636;-72
2022/06/03 18:40:43;;;;;;;1.80;1.73;;;24.30;99.90;;;;;;5076015;28;20267;-72
2022/06/03 18:43:39;;;;;;;2.85;2.00;;;23.80;99.90;;;;;;5076152;28;20175;-72
2022/06/03 18:46:33;;;;;;;2.10;2.00;;;23.20;99.90;;;;;;5076284;28;20168;-72
2022/06/03 18:49:40;;;;;;;2.50;2.30;;;22.90;99.90;;;;;;5074963;28;20262;-72
2022/06/03 18:52:44;;;;;;;4.10;2.10;;;22.50;99.90;;;;;;5074010;28;20179;-72
2022/06/03 18:55:32;;;;;;;2.13;1.83;;;22.10;99.90;;;;;;5074915;28;20245;-72
2022/06/03 18:58:23;;;;;;;1.90;1.80;;;21.80;99.90;;;;;;5076063;28;20168;-72
2022/06/03 19:01:01;;;;;;;4.93;2.83;;;21.60;99.90;;;;;;5075974;28;20172;-72
2022/06/03 19:03:46;;;;;;;2.13;2.00;;;21.40;99.90;;;;;;5075960;28;20543;-72
2022/06/03 19:06:53;;;;;;;2.30;2.20;;;21.10;99.90;;;;;;5075891;28;20168;-72
2022/06/03 19:09:31;;;;;;;2.10;2.00;;;21.00;99.90;;;;;;5075851;28;20203;-72
2022/06/03 19:12:27;;;;;;;2.05;2.00;;;20.80;99.90;;;;;;5075550;28;20195;-72
